Miriam Vale Town Of 1770, Queensland

5:44 AM EST on July 31, 2014 (GMT +1000)
Gladstone (YGLA) Elev 62 ft | 23.87 °S, 151.22 °E | Change Station

Current weather conditions updated 44 minutes ago

Clear
Clear
54 °F
Feels Like 54 °F
N
7
Wind Variable Wind from SSW

Today is forecast to be nearly the same temperature as yesterday.

Today
High -- | Low -- °F
--% Chance of Precip.
Yesterday
High -- | Low -- °F
Precip. -- in
6:29 AM 5:28 PM
Waxing Crescent, 13% visible
Pressure 30.12 in
Visibility 6.2 miles
Clouds
Dew Point 48 °F
Humidity 82%
Rainfall 0.00 in
Snow Depth Not available.
UV Not available.
Pollen Not available.
Air Quality Not available.
Flu Activity Not available.
METAR YGLA 301900Z AUTO 21006KT 9999 // NCD 12/09 Q1020

More Conditions Fewer Conditions

Pressure 30.12 in
Visibility 6.2 miles
Clouds
Dew Point 48 °F
Humidity 82%
Rainfall 0.00 in
Snow Depth Not available.
UV Not available.
Pollen Not available.
Air Quality Not available.
Flu Activity Not available.
METAR YGLA 301900Z AUTO 21006KT 9999 // NCD 12/09 Q1020

More Conditions Fewer Conditions

10-Day Weather Forecast

Almanac

Astronomy

Jul. 31, 2014 Rise Set
Actual Time 6:29 AM EST 5:28 PM EST
Civil Twilight 6:05 AM EST 5:52 PM EST
Nautical Twilight 5:38 AM EST 6:20 PM EST
Astronomical Twilight 5:10 AM EST 6:47 PM EST
Moon 8:45 AM EST (7/31) 9:05 PM EST (7/31)
Length of Visible Light 11h 47m
Length of Day
10h 59m
Tomorrow will be 0m 59s longer.
Waxing Crescent, 13% of the Moon is Illuminated
Jul 30
Waxing Crescent
Aug 3
First Quarter
Aug 10
Full
Aug 17
Last Quarter
Aug 25
New

Yesterday's Extremes

Country Highs Country Lows

Community

WunderPhotos

Upload Photos

1,739,168 photos uploaded!

WunderBlogs® & News

Nearby

Snow Depth

Not available.

Earthquake Activity

City Distance Mag. Time & Date
No recent earthquake activity has been reported nearby.
Minimum magnitude displayed is 2.5.

Coastal Water Temperatures

Place Temperature
No Stations Reporting

Nearby Weather Stations

There are no personal weather stations in this area.